EW1914 Weather Reports


Display with metric or nautical units.
time (UTC)temp
F
wind
direction
speed
MPH
gust
MPH
rain 1hr
in
rain 24hr
in
rain mn
in
humidity
%
barometer
mb
20200330013616 57 237 5.0 15.0 0.00 0.22 0.21 64 1011.0
20200330012545 57 180 3.0 8.0 0.00 0.22 0.21 65 1011.0
20200330011601 57 149 3.0 11.0 0.00 0.22 0.21 63 1011.1
20200330010537 58 180 4.0 11.0 0.00 0.22 0.21 62 1011.1
20200330005553 58 180 1.0 7.0 0.00 0.22 0.21 65 1011.2
20200330004527 58 287 2.0 10.0 0.00 0.22 0.21 67 1011.2
20200330003548 58 277 2.0 10.0 0.00 0.22 0.21 67 1011.2
20200330002537 58 304 3.0 10.0 0.00 0.22 0.21 67 1011.3
20200330001507 58 267 2.0 8.0 0.00 0.22 0.21 69 1011.4
20200330000448 58 180 2.0 11.0 0.00 0.22 0.21 70 1011.5
20200329235450 58 237 3.0 11.0 0.00 0.22 0.21 69 1011.5
20200329234427 58 284 3.0 9.0 0.00 0.22 0.21 71 1011.7
20200329233359 58 283 4.0 11.0 0.00 0.22 0.21 71 1011.7
20200329232414 58 180 3.0 13.0 0.00 0.22 0.21 72 1011.7
20200329231405 58 310 5.0 18.0 0.00 0.22 0.21 74 1011.8
20200329230421 58 272 5.0 18.0 0.00 0.22 0.21 75 1011.8
20200329225400 58 180 2.0 14.0 0.00 0.22 0.21 77 1011.8
20200329224412 57 276 6.0 14.0 0.00 0.22 0.21 78 1011.9
20200329223349 57 180 3.0 11.0 0.00 0.22 0.21 82 1012.0
20200329222337 57 180 4.0 14.0 0.00 0.22 0.21 80 1012.1
20200329221307 57 258 4.0 14.0 0.00 0.22 0.21 82 1012.1
20200329220315 56 283 3.0 8.0 0.00 0.22 0.21 88 1012.2
20200329215330 55 255 2.0 11.0 0.00 0.22 0.21 91 1012.2
20200329214343 53 273 3.0 11.0 0.04 0.22 0.21 88 1012.4
20200329213349 54 299 3.0 11.0 0.05 0.22 0.21 86 1012.8
20200329212411 54 299 3.0 10.0 0.18 0.22 0.21 85 1012.6
20200329211356 55 307 4.0 10.0 0.10 0.18 0.16 83 1012.8
20200329210324 56 307 2.0 10.0 0.00 0.14 0.12 81 1012.9
20200329205339 56 308 2.0 11.0 0.00 0.14 0.12 79 1012.8
20200329204314 57 271 3.0 15.0 0.00 0.14 0.12 78 1013.0
20200329203319 57 180 6.0 17.0 0.00 0.14 0.12 71 1012.8
20200329202335 58 175 8.0 17.0 0.00 0.14 0.12 71 1012.8
20200329201355 58 180 6.0 14.0 0.00 0.14 0.12 71 1012.8
20200329200358 58 180 6.0 14.0 0.00 0.14 0.12 72 1013.0
20200329195332 58 240 5.0 14.0 0.00 0.14 0.12 76 1013.0
20200329194326 57 272 6.0 14.0 0.00 0.14 0.12 78 1013.2
20200329193321 56 131 5.0 13.0 0.00 0.14 0.12 81 1013.3
20200329192316 55 180 5.0 13.0 0.00 0.14 0.12 79 1013.4
20200329191251 55 180 5.0 11.0 0.00 0.15 0.12 82 1013.5
20200329190257 54 266 5.0 11.0 0.00 0.15 0.12 83 1013.5
20200329185247 53 180 4.0 12.0 0.00 0.15 0.12 82 1013.6
20200329184226 53 244 5.0 12.0 0.00 0.15 0.12 82 1013.6
20200329183213 53 180 5.0 12.0 0.00 0.15 0.12 83 1013.6
20200329182221 53 243 4.0 11.0 0.00 0.15 0.12 85 1013.6
20200329181154 53 284 3.0 10.0 0.00 0.15 0.12 86 1013.6
20200329180210 53 225 3.0 11.0 0.00 0.15 0.12 88 1013.6
20200329175221 52 265 3.0 11.0 0.00 0.15 0.12 90 1013.6
20200329174150 52 127 2.0 9.0 0.00 0.15 0.12 91 1013.5
20200329173126 51 180 3.0 11.0 0.00 0.15 0.12 90 1013.5
20200329172144 51 180 4.0 13.0 0.00 0.15 0.12 90 1013.5
20200329171124 51 180 4.0 13.0 0.00 0.15 0.12 91 1013.5
20200329170103 51 180 2.0 10.0 0.00 0.15 0.12 91 1013.3
20200329165053 50 180 3.0 12.0 0.00 0.15 0.12 92 1013.3
20200329164038 50 180 2.0 12.0 0.00 0.15 0.12 93 1013.3
20200329163057 50 104 1.0 8.0 0.00 0.15 0.12 92 1013.4
20200329162114 49 180 1.0 5.0 0.00 0.15 0.12 92 1013.3
20200329161131 49 180 1.0 7.0 0.00 0.15 0.12 92 1013.3
20200329160123 49 180 2.0 8.0 0.00 0.15 0.12 92 1013.3
20200329155118 49 180 1.0 9.0 0.00 0.15 0.12 92 1013.3
20200329154139 49 180 2.0 9.0 0.00 0.15 0.12 93 1013.3
20200329153106 49 180 2.0 8.0 0.00 0.15 0.12 93 1013.3
20200329152128 49 180 2.0 8.0 0.00 0.16 0.12 93 1013.2
20200329151146 49 180 2.0 7.0 0.00 0.16 0.12 93 1013.1
20200329150136 49 180 1.0 8.0 0.00 0.16 0.12 93 1013.0
20200329145143 49 180 2.0 8.0 0.00 0.16 0.12 93 1012.9
20200329144148 49 180 2.0 8.0 0.00 0.16 0.12 93 1012.8
20200329143148 49 237 4.0 12.0 0.00 0.16 0.12 93 1012.9
20200329142144 49 257 2.0 12.0 0.00 0.16 0.12 93 1013.0
20200329141206 49 270 2.0 5.0 0.00 0.16 0.12 93 1012.8
20200329140202 49 180 0.0 3.0 0.00 0.16 0.12 92 1012.7
20200329135141 49 150 1.0 5.0 0.00 0.16 0.12 93 1012.6
20200329134132 49 139 1.0 9.0 0.00 0.16 0.12 92 1012.6
20200329133119 49 215 2.0 10.0 0.00 0.14 0.12 92 1012.6
20200329132047 49 231 2.0 10.0 0.00 0.14 0.10 92 1012.5
20200329131037 49 241 3.0 8.0 0.00 0.14 0.10 92 1012.6
20200329130048 49 180 2.0 8.0 0.04 0.14 0.10 92 1012.6
20200329125027 49 180 2.0 8.0 0.04 0.14 0.10 92 1012.5
20200329123955 49 249 3.0 12.0 0.06 0.13 0.10 92 1012.6
20200329123014 49 180 4.0 12.0 0.06 0.13 0.10 92 1012.8
20200329122035 49 131 3.0 10.0 0.00 0.12 0.08 93 1012.8
20200329121007 49 281 2.0 13.0 0.00 0.12 0.08 93 1012.7
20200329115939 49 258 3.0 12.0 0.04 0.11 0.06 92 1012.6
20200329114926 49 180 4.0 16.0 0.04 0.11 0.06 92 1012.5
20200329113939 49 180 7.0 16.0 0.05 0.11 0.06 92 1012.5
20200329112940 49 264 5.0 15.0 0.05 0.11 0.06 92 1012.5
20200329111923 50 253 5.0 13.0 0.05 0.10 0.05 92 1012.5
20200329110855 50 180 4.0 17.0 0.00 0.09 0.04 92 1012.5
20200329105840 50 255 6.0 17.0 0.00 0.08 0.03 92 1012.5
20200329104824 50 180 5.0 14.0 0.04 0.08 0.03 91 1012.5
20200329103824 50 254 4.0 14.0 0.04 0.07 0.02 91 1012.5
20200329102838 50 127 3.0 11.0 0.00 0.07 0.02 91 1012.6
20200329101855 50 180 2.0 10.0 0.00 0.06 0.01 90 1012.6
20200329100911 50 180 2.0 8.0 0.00 0.06 0.01 90 1012.6
20200329095839 50 245 2.0 10.0 0.00 0.06 0.01 90 1012.6
20200329094814 50 180 2.0 10.0 0.00 0.05 0.00 89 1012.7
20200329093739 50 106 3.0 12.0 0.00 0.05 0.00 88 1012.8
20200329092801 50 141 4.0 12.0 0.00 0.05 0.00 88 1012.7
20200329090833 50 180 2.0 8.0 0.00 0.05 0.00 88 1013.0
20200329085805 50 180 2.0 9.0 0.00 0.05 0.00 88 1013.0
20200329084742 50 180 2.0 11.0 0.00 0.05 0.00 89 1013.1
20200329083800 50 245 2.0 11.0 0.00 0.05 0.00 89 1013.2
20200329082806 50 112 2.0 8.0 0.00 0.05 0.00 89 1013.3
20200329081749 50 96 1.0 6.0 0.00 0.05 0.00 89 1013.3
20200329080813 50 126 2.0 7.0 0.00 0.05 0.00 89 1013.3
20200329075751 50 131 1.0 8.0 0.00 0.05 0.00 89 1013.4
20200329074724 50 232 1.0 8.0 0.00 0.05 0.00 89 1013.4
20200329073715 50 95 1.0 7.0 0.00 0.05 0.00 89 1013.5
20200329072726 50 129 1.0 8.0 0.00 0.05 0.00 89 1013.6
20200329071724 50 180 1.0 9.0 0.00 0.06 0.00 89 1013.5
20200329070701 50 180 2.0 9.0 0.00 0.06 0.00 89 1013.5
20200329065659 50 180 2.0 8.0 0.00 0.06 0.06 89 1013.6
20200329064700 50 180 0.0 9.0 0.00 0.06 0.06 89 1013.7
20200329063711 50 180 2.0 9.0 0.00 0.04 0.05 89 1013.7
20200329062657 51 214 1.0 6.0 0.00 0.05 0.05 90 1013.8
20200329061652 51 106 1.0 5.0 0.00 0.05 0.05 90 1014.0
20200329060708 51 250 1.0 6.0 0.00 0.06 0.05 90 1014.0
20200329055647 51 254 2.0 6.0 0.00 0.06 0.05 90 1014.0
20200329054700 51 245 0.0 8.0 0.00 0.06 0.05 90 1014.0
20200329053724 51 136 1.0 8.0 0.00 0.06 0.05 90 1014.1
20200329052747 51 119 1.0 8.0 0.00 0.07 0.05 90 1014.1
20200329051758 51 124 1.0 7.0 0.00 0.07 0.05 90 1014.1
20200329050741 51 180 2.0 7.0 0.00 0.07 0.05 90 1014.1
20200329045714 51 131 2.0 7.0 0.00 0.07 0.05 90 1014.1
20200329044729 51 180 2.0 8.0 0.00 0.09 0.05 90 1014.1
20200329043727 51 120 2.0 12.0 0.00 0.09 0.05 89 1014.1
20200329042748 51 117 2.0 12.0 0.00 0.09 0.05 89 1014.1
20200329041746 51 289 2.0 9.0 0.00 0.09 0.05 89 1014.0
20200329040753 52 180 2.0 8.0 0.00 0.09 0.05 89 1014.1
20200329035817 52 138 1.0 9.0 0.00 0.09 0.05 89 1014.1
20200329034748 52 247 3.0 9.0 0.00 0.09 0.05 89 1014.0
20200329033724 52 133 2.0 6.0 0.00 0.09 0.05 89 1014.0
20200329032706 52 133 2.0 8.0 0.00 0.09 0.05 88 1014.1
20200329031646 52 124 2.0 11.0 0.00 0.09 0.05 88 1014.0
20200329030631 52 115 3.0 13.0 0.00 0.09 0.05 87 1014.1
20200329025624 53 95 4.0 13.0 0.00 0.09 0.05 87 1014.1
20200329024601 53 114 1.0 9.0 0.00 0.09 0.05 87 1014.1
20200329023538 53 226 3.0 9.0 0.00 0.09 0.05 87 1014.1
20200329022533 53 254 2.0 7.0 0.00 0.09 0.05 87 1014.2
20200329021505 53 123 2.0 10.0 0.00 0.09 0.05 86 1014.1
20200329020437 53 180 3.0 10.0 0.00 0.09 0.05 86 1014.2
20200329015447 53 180 1.0 8.0 0.00 0.09 0.05 86 1014.3